createdAt,value
2022-11-24T00:01:31.980Z,10.00
2022-11-24T00:04:06.839Z,10.10
2022-11-24T00:06:36.157Z,10.10
2022-11-24T00:09:05.304Z,10.10
2022-11-24T00:11:35.211Z,10.10
2022-11-24T00:14:03.930Z,10.20
2022-11-24T00:16:38.799Z,10.20
2022-11-24T00:19:14.595Z,10.20
2022-11-24T00:21:43.929Z,10.20
2022-11-24T00:24:11.684Z,10.20
2022-11-24T00:26:38.654Z,10.20
2022-11-24T00:29:09.926Z,10.30
2022-11-24T00:31:42.720Z,10.30
2022-11-24T00:34:16.483Z,10.30
2022-11-24T00:36:43.359Z,10.30
2022-11-24T00:39:19.756Z,10.30
2022-11-24T00:41:50.826Z,10.30
2022-11-24T00:44:17.671Z,10.30
2022-11-24T00:46:44.629Z,10.30
2022-11-24T00:49:11.855Z,10.30
2022-11-24T00:51:38.802Z,10.30
2022-11-24T00:54:13.628Z,10.30
2022-11-24T00:56:46.133Z,10.30
2022-11-24T00:59:15.513Z,10.30
2022-11-24T01:01:42.701Z,10.30
2022-11-24T01:04:12.743Z,10.30
2022-11-24T01:06:39.570Z,10.20
2022-11-24T01:09:11.380Z,10.20
2022-11-24T01:11:56.703Z,10.20
2022-11-24T01:14:27.735Z,10.20
2022-11-24T01:16:55.070Z,10.10
2022-11-24T01:19:22.515Z,10.10
2022-11-24T01:21:49.989Z,10.10
2022-11-24T01:24:19.459Z,10.10
2022-11-24T01:26:48.565Z,10.10
2022-11-24T01:29:17.680Z,10.00
2022-11-24T01:31:44.517Z,10.00
2022-11-24T01:34:14.458Z,10.00
2022-11-24T01:36:42.181Z,10.00
2022-11-24T01:39:11.548Z,10.00
2022-11-24T01:41:38.368Z,10.00
2022-11-24T01:44:28.718Z,10.00
2022-11-24T01:47:05.028Z,9.90
2022-11-24T01:49:48.132Z,9.90
2022-11-24T01:52:22.890Z,9.90
2022-11-24T01:54:59.417Z,9.90
2022-11-24T01:57:36.261Z,9.80
2022-11-24T02:00:11.271Z,9.80
2022-11-24T02:02:38.476Z,9.80
2022-11-24T02:05:31.149Z,9.70
2022-11-24T02:08:01.036Z,9.70
2022-11-24T02:10:27.903Z,9.70
2022-11-24T02:12:57.908Z,9.70
2022-11-24T02:15:25.413Z,9.70
2022-11-24T02:17:52.320Z,9.60
2022-11-24T02:20:19.298Z,9.60
2022-11-24T02:23:25.079Z,9.60
2022-11-24T02:26:10.229Z,9.60
2022-11-24T02:28:40.754Z,9.50
2022-11-24T02:31:07.889Z,9.60
2022-11-24T02:33:35.709Z,9.60
2022-11-24T02:36:02.614Z,9.60
2022-11-24T02:38:37.108Z,9.50
2022-11-24T02:41:08.992Z,9.50
2022-11-24T02:43:45.067Z,9.50
2022-11-24T02:46:14.304Z,9.50
2022-11-24T02:48:43.745Z,9.40
2022-11-24T02:51:13.076Z,9.40
2022-11-24T02:53:39.943Z,9.40
2022-11-24T02:56:09.426Z,9.30
2022-11-24T02:58:40.890Z,9.30
2022-11-24T03:01:07.800Z,9.30
2022-11-24T03:03:34.931Z,9.30
2022-11-24T03:06:01.745Z,9.20
2022-11-24T03:08:33.315Z,9.20
2022-11-24T03:11:01.694Z,9.20
2022-11-24T03:13:28.837Z,9.00
2022-11-24T03:16:00.396Z,9.10
2022-11-24T03:18:27.154Z,9.00
2022-11-24T03:21:01.055Z,8.80
2022-11-24T03:23:27.911Z,8.90
2022-11-24T03:25:54.982Z,9.00
2022-11-24T03:28:21.831Z,8.90
2022-11-24T03:30:53.032Z,8.90
2022-11-24T03:33:22.168Z,8.90
2022-11-24T03:35:51.476Z,8.90
2022-11-24T03:38:18.324Z,8.90
2022-11-24T03:40:45.184Z,8.90
2022-11-24T03:43:12.059Z,8.90
2022-11-24T03:45:46.400Z,8.90
2022-11-24T03:48:23.434Z,8.80
2022-11-24T03:51:00.911Z,8.80
2022-11-24T03:53:31.438Z,8.80
2022-11-24T03:56:00.855Z,8.80
2022-11-24T03:58:28.346Z,8.80
2022-11-24T04:00:56.119Z,8.80
2022-11-24T04:03:23.665Z,8.80
2022-11-24T04:05:50.757Z,8.90
2022-11-24T04:08:17.864Z,8.90
2022-11-24T04:10:44.973Z,8.90
2022-11-24T04:13:17.029Z,8.90
2022-11-24T04:15:49.904Z,8.90
2022-11-24T04:18:19.344Z,8.90
2022-11-24T04:20:51.725Z,8.90
2022-11-24T04:23:19.033Z,8.90
2022-11-24T04:25:50.447Z,8.90
2022-11-24T04:28:22.840Z,9.00
2022-11-24T04:30:49.657Z,8.90
2022-11-24T04:33:16.499Z,9.00
2022-11-24T04:35:45.614Z,8.90
2022-11-24T04:38:12.486Z,8.90
2022-11-24T04:40:39.334Z,8.90
2022-11-24T04:43:09.031Z,8.90
2022-11-24T04:45:40.689Z,8.90
2022-11-24T04:48:07.523Z,8.90
2022-11-24T04:50:37.168Z,8.70
2022-11-24T04:53:04.351Z,8.90
2022-11-24T04:55:35.815Z,8.90
2022-11-24T04:58:02.825Z,8.90
2022-11-24T05:00:32.691Z,8.90
2022-11-24T05:03:00.791Z,8.90
2022-11-24T05:05:27.661Z,8.90
2022-11-24T05:08:00.003Z,8.80
2022-11-24T05:10:36.471Z,8.80
2022-11-24T05:13:14.957Z,8.80
2022-11-24T05:15:45.082Z,8.80
2022-11-24T05:18:18.986Z,8.80
2022-11-24T05:20:49.550Z,8.80
2022-11-24T05:23:17.626Z,8.80
2022-11-24T05:25:47.633Z,8.80
2022-11-24T05:28:16.488Z,8.80
2022-11-24T05:30:43.411Z,8.80
2022-11-24T05:33:24.180Z,8.70
2022-11-24T05:35:51.407Z,8.70
2022-11-24T05:38:22.535Z,8.70
2022-11-24T05:40:52.036Z,8.70
2022-11-24T05:43:34.131Z,8.70
2022-11-24T05:46:04.245Z,8.70
2022-11-24T05:48:31.147Z,8.70
2022-11-24T05:51:03.172Z,8.70
2022-11-24T05:53:33.315Z,8.60
2022-11-24T05:56:04.539Z,8.60
2022-11-24T05:58:33.648Z,8.60
2022-11-24T06:01:08.529Z,8.50
2022-11-24T06:03:35.408Z,8.50
2022-11-24T06:06:03.177Z,8.50
2022-11-24T06:11:36.860Z,8.50
2022-11-24T06:14:08.231Z,8.50
2022-11-24T06:16:40.009Z,8.60
2022-11-24T06:19:14.507Z,8.60
2022-11-24T06:21:41.408Z,8.60
2022-11-24T06:24:10.755Z,8.60
2022-11-24T06:26:39.725Z,8.60
2022-11-24T06:29:06.923Z,8.60
2022-11-24T06:31:34.152Z,8.60
2022-11-24T06:34:01.103Z,8.60
2022-11-24T06:36:28.234Z,8.60
2022-11-24T06:38:55.123Z,8.70
2022-11-24T06:41:26.639Z,8.70
2022-11-24T06:43:53.495Z,8.70
2022-11-24T06:46:20.801Z,8.80
2022-11-24T06:48:54.889Z,8.80
2022-11-24T06:51:21.766Z,8.90
2022-11-24T06:53:54.259Z,8.90
2022-11-24T06:56:23.093Z,9.00
2022-11-24T06:58:54.789Z,9.00
2022-11-24T07:01:27.335Z,9.10
2022-11-24T07:03:55.760Z,9.10
2022-11-24T07:06:24.696Z,9.20
2022-11-24T07:08:52.559Z,9.20
2022-11-24T07:11:23.391Z,9.30
2022-11-24T07:13:59.920Z,9.30
2022-11-24T07:16:28.313Z,9.40
2022-11-24T07:18:56.218Z,9.40
2022-11-24T07:21:27.961Z,9.40
2022-11-24T07:23:56.986Z,9.50
2022-11-24T07:26:25.050Z,9.50
2022-11-24T07:28:52.181Z,9.50
2022-11-24T07:31:22.351Z,9.60
2022-11-24T07:33:54.923Z,9.60
2022-11-24T07:36:24.984Z,9.60
2022-11-24T07:38:52.183Z,9.70
2022-11-24T07:41:20.086Z,9.70
2022-11-24T07:43:50.560Z,9.70
2022-11-24T07:46:19.555Z,9.80
2022-11-24T07:48:47.215Z,9.80
2022-11-24T07:51:18.895Z,9.80
2022-11-24T07:53:46.387Z,9.90
2022-11-24T07:56:13.608Z,9.90
2022-11-24T07:58:40.606Z,9.90
2022-11-24T08:01:17.349Z,9.90
2022-11-24T08:03:45.380Z,9.90
2022-11-24T08:06:26.181Z,10.00
2022-11-24T08:08:59.104Z,10.00
2022-11-24T08:11:26.637Z,10.00
2022-11-24T08:13:53.868Z,10.00
2022-11-24T08:16:23.360Z,10.10
2022-11-24T08:18:53.045Z,10.10
2022-11-24T08:21:20.078Z,10.10
2022-11-24T08:23:47.307Z,10.10
2022-11-24T08:26:19.327Z,10.20
2022-11-24T08:28:47.985Z,10.20
2022-11-24T08:31:18.836Z,10.20
2022-11-24T08:33:48.990Z,10.20
2022-11-24T08:36:18.550Z,10.20
2022-11-24T08:39:06.154Z,10.30
2022-11-24T08:41:35.619Z,10.20
2022-11-24T08:44:02.501Z,10.30
2022-11-24T08:46:31.972Z,10.30
2022-11-24T08:49:01.235Z,10.30
2022-11-24T08:51:28.465Z,10.30
2022-11-24T08:54:01.315Z,10.30
2022-11-24T08:56:33.052Z,10.40
2022-11-24T08:59:03.253Z,10.40
2022-11-24T09:01:30.396Z,10.40
2022-11-24T09:03:57.834Z,10.40
2022-11-24T09:06:30.885Z,10.50
2022-11-24T09:08:58.963Z,10.50
2022-11-24T09:11:27.334Z,10.50
2022-11-24T09:13:55.078Z,10.60
2022-11-24T09:16:26.413Z,10.60
2022-11-24T09:19:16.089Z,10.60
2022-11-24T09:21:43.019Z,10.60
2022-11-24T09:24:10.834Z,10.60
2022-11-24T09:26:44.530Z,10.70
2022-11-24T09:29:16.417Z,10.70
2022-11-24T09:31:43.422Z,10.70
2022-11-24T09:34:15.524Z,10.80
2022-11-24T09:36:45.287Z,10.80
2022-11-24T09:39:12.355Z,10.80
2022-11-24T09:42:14.193Z,10.80
2022-11-24T09:45:22.794Z,10.90
2022-11-24T09:48:35.142Z,10.90
2022-11-24T09:51:04.758Z,10.90
2022-11-24T09:53:51.928Z,10.90
2022-11-24T09:56:28.883Z,10.90
2022-11-24T09:59:18.544Z,11.00
2022-11-24T10:01:54.448Z,11.00
2022-11-24T10:04:22.893Z,11.10
2022-11-24T10:07:21.351Z,11.10
2022-11-24T10:10:24.779Z,11.10
2022-11-24T10:13:30.128Z,11.10
2022-11-24T10:16:19.600Z,11.20
2022-11-24T10:19:22.025Z,11.20
2022-11-24T10:22:21.106Z,11.20
2022-11-24T10:25:12.945Z,11.30
2022-11-24T10:28:03.559Z,11.20
2022-11-24T10:30:33.071Z,11.10
2022-11-24T10:33:23.229Z,11.30
2022-11-24T10:36:03.576Z,11.30
2022-11-24T10:38:38.980Z,11.30
2022-11-24T10:41:48.048Z,11.40
2022-11-24T10:44:15.520Z,11.40
2022-11-24T10:46:42.578Z,11.40
2022-11-24T10:49:24.191Z,11.40
2022-11-24T10:52:16.060Z,11.50
2022-11-24T10:55:02.588Z,11.40
2022-11-24T10:57:30.959Z,11.30
2022-11-24T10:59:58.023Z,11.40
2022-11-24T11:02:40.564Z,11.50
2022-11-24T11:06:05.665Z,11.40
2022-11-24T11:08:33.023Z,11.40
2022-11-24T11:11:30.328Z,11.40
2022-11-24T11:14:03.948Z,11.40
2022-11-24T11:16:53.849Z,11.50
2022-11-24T11:20:01.561Z,11.50
2022-11-24T11:22:38.480Z,11.50
2022-11-24T11:25:11.591Z,11.50
2022-11-24T11:27:40.040Z,11.60
2022-11-24T11:36:15.994Z,11.60
2022-11-24T11:38:44.564Z,11.70
2022-11-24T11:41:21.919Z,11.70
2022-11-24T11:43:58.009Z,11.70
2022-11-24T11:46:29.057Z,11.80
2022-11-24T11:48:59.043Z,11.80
2022-11-24T11:51:42.100Z,11.90
2022-11-24T11:54:30.996Z,11.80
2022-11-24T11:57:42.212Z,11.90
2022-11-24T12:00:19.279Z,11.90
2022-11-24T12:03:16.537Z,11.90
2022-11-24T12:06:01.417Z,11.90
2022-11-24T12:09:11.589Z,11.90
2022-11-24T12:12:18.827Z,12.00
2022-11-24T12:15:37.158Z,11.90
2022-11-24T12:18:59.739Z,11.90
2022-11-24T12:21:55.025Z,12.00
2022-11-24T12:24:50.191Z,12.00
2022-11-24T12:27:47.355Z,12.00
2022-11-24T12:30:21.588Z,12.00
2022-11-24T12:33:00.381Z,12.00
2022-11-24T12:35:52.665Z,12.00
2022-11-24T12:38:44.948Z,12.00
2022-11-24T12:41:43.022Z,12.10
2022-11-24T12:44:55.213Z,12.10
2022-11-24T12:47:38.735Z,12.10
2022-11-24T12:53:06.075Z,12.20
2022-11-24T12:55:36.086Z,12.20
2022-11-24T12:58:28.726Z,12.20
2022-11-24T13:01:40.831Z,12.30
2022-11-24T13:04:35.912Z,12.20
2022-11-24T13:07:24.617Z,12.20
2022-11-24T13:10:53.624Z,12.30
2022-11-24T13:13:18.962Z,12.30
2022-11-24T13:16:34.801Z,12.40
2022-11-24T13:18:55.890Z,12.40
2022-11-24T13:21:59.757Z,12.40
2022-11-24T13:24:30.905Z,12.40
2022-11-24T13:27:16.383Z,12.50
2022-11-24T13:29:53.599Z,12.40
2022-11-24T13:32:23.034Z,12.50
2022-11-24T13:34:57.352Z,12.50
2022-11-24T13:37:34.508Z,12.50
2022-11-24T13:40:11.762Z,12.50
2022-11-24T13:43:02.529Z,12.50
2022-11-24T13:45:41.715Z,12.50
2022-11-24T13:48:21.165Z,12.50
2022-11-24T13:50:51.822Z,12.60
2022-11-24T13:53:37.516Z,12.60
2022-11-24T14:02:46.125Z,12.50
2022-11-24T14:05:17.743Z,12.60
2022-11-24T14:07:48.457Z,12.50
2022-11-24T14:10:38.201Z,12.30
2022-11-24T14:13:25.939Z,12.40
2022-11-24T14:16:18.789Z,12.40
2022-11-24T14:18:56.379Z,12.40
2022-11-24T14:21:28.533Z,12.40
2022-11-24T14:24:12.091Z,12.40
2022-11-24T14:26:40.992Z,12.40
2022-11-24T14:29:17.274Z,12.40
2022-11-24T14:31:58.422Z,12.40
2022-11-24T14:34:31.683Z,12.30
2022-11-24T14:37:02.029Z,12.30
2022-11-24T14:39:31.409Z,12.40
2022-11-24T14:42:05.084Z,12.30
2022-11-24T14:44:40.372Z,12.30
2022-11-24T14:47:31.650Z,12.30
2022-11-24T14:50:16.044Z,12.20
2022-11-24T14:53:00.748Z,12.10
2022-11-24T14:55:31.021Z,12.20
2022-11-24T14:57:59.476Z,12.20
2022-11-24T15:00:31.743Z,12.20
2022-11-24T15:03:01.805Z,12.20
2022-11-24T15:05:58.651Z,12.10
2022-11-24T15:08:37.489Z,12.10
2022-11-24T15:11:06.900Z,12.10
2022-11-24T15:13:38.226Z,12.00
2022-11-24T15:16:19.326Z,12.00
2022-11-24T15:19:01.535Z,11.90
2022-11-24T15:21:39.741Z,11.90
2022-11-24T15:24:20.335Z,11.90
2022-11-24T15:26:49.339Z,11.80
2022-11-24T15:29:16.245Z,11.80
2022-11-24T15:31:51.011Z,11.80
2022-11-24T15:34:24.230Z,11.80
2022-11-24T15:36:53.637Z,11.70
2022-11-24T15:39:20.481Z,11.70
2022-11-24T15:41:47.372Z,11.70
2022-11-24T15:44:17.267Z,11.60
2022-11-24T15:46:44.257Z,11.60
2022-11-24T15:49:11.164Z,11.50
2022-11-24T15:51:43.825Z,11.40
2022-11-24T15:54:17.779Z,11.30
2022-11-24T15:56:44.762Z,11.30
2022-11-24T15:59:20.305Z,11.20
2022-11-24T16:01:50.809Z,11.10
2022-11-24T16:04:22.658Z,11.00
2022-11-24T16:06:51.738Z,10.90
2022-11-24T16:09:50.694Z,10.70
2022-11-24T16:12:17.612Z,10.70
2022-11-24T16:14:44.493Z,10.70
2022-11-24T16:17:11.398Z,10.70
2022-11-24T16:19:41.822Z,10.70
2022-11-24T16:22:09.047Z,10.60
2022-11-24T16:24:36.469Z,10.60
2022-11-24T16:27:06.702Z,10.50
2022-11-24T16:29:38.588Z,10.50
2022-11-24T16:32:08.368Z,10.40
2022-11-24T16:34:35.425Z,10.30
2022-11-24T16:37:04.478Z,10.30
2022-11-24T16:39:33.408Z,10.30
2022-11-24T16:42:00.220Z,10.20
2022-11-24T16:44:27.114Z,10.20
2022-11-24T16:46:56.944Z,10.20
2022-11-24T16:49:29.362Z,10.10
2022-11-24T16:51:58.729Z,10.10
2022-11-24T16:54:25.818Z,10.10
2022-11-24T16:56:55.174Z,10.10
2022-11-24T16:59:24.543Z,10.00
2022-11-24T17:01:51.592Z,10.00
2022-11-24T17:04:18.591Z,9.90
2022-11-24T17:06:45.513Z,9.90
2022-11-24T17:09:12.445Z,9.90
2022-11-24T17:11:39.389Z,9.80
2022-11-24T17:14:10.971Z,9.80
2022-11-24T17:16:38.248Z,9.80
2022-11-24T17:19:05.731Z,9.60
2022-11-24T17:21:35.477Z,9.70
2022-11-24T17:24:05.872Z,9.70
2022-11-24T17:26:33.767Z,9.70
2022-11-24T17:29:00.884Z,9.70
2022-11-24T17:31:35.791Z,9.70
2022-11-24T17:34:06.325Z,9.70
2022-11-24T17:36:37.791Z,9.60
2022-11-24T17:39:07.587Z,9.60
2022-11-24T17:41:39.594Z,9.60
2022-11-24T17:44:08.586Z,9.50
2022-11-24T17:46:39.088Z,9.50
2022-11-24T17:49:13.005Z,9.50
2022-11-24T17:51:41.269Z,9.50
2022-11-24T17:54:39.116Z,9.50
2022-11-24T17:57:01.208Z,9.40
2022-11-24T17:59:28.097Z,9.40
2022-11-24T18:01:54.974Z,9.40
2022-11-24T18:04:26.860Z,9.30
2022-11-24T18:06:58.906Z,9.30
2022-11-24T18:09:28.055Z,9.20
2022-11-24T18:11:55.023Z,9.20
2022-11-24T18:14:21.920Z,9.10
2022-11-24T18:16:51.335Z,9.10
2022-11-24T18:19:22.756Z,9.10
2022-11-24T18:21:52.126Z,9.00
2022-11-24T18:24:23.910Z,9.00
2022-11-24T18:26:51.167Z,9.00
2022-11-24T18:29:18.124Z,9.00
2022-11-24T18:31:47.310Z,8.90
2022-11-24T18:34:14.221Z,8.90
2022-11-24T18:36:41.254Z,8.90
2022-11-24T18:39:09.956Z,8.90
2022-11-24T18:41:36.894Z,8.80
2022-11-24T18:44:07.911Z,8.80
2022-11-24T18:46:35.305Z,8.80
2022-11-24T18:49:02.370Z,8.80
2022-11-24T18:51:30.064Z,8.80
2022-11-24T18:53:58.230Z,8.80
2022-11-24T18:56:26.470Z,8.70
2022-11-24T18:58:55.412Z,8.70
2022-11-24T19:01:28.373Z,8.70
2022-11-24T19:03:58.509Z,8.70
2022-11-24T19:06:32.657Z,8.70
2022-11-24T19:09:08.369Z,8.60
2022-11-24T19:11:42.086Z,8.60
2022-11-24T19:14:17.471Z,8.60
2022-11-24T19:16:49.750Z,8.60
2022-11-24T19:19:17.365Z,8.50
2022-11-24T19:21:44.405Z,8.50
2022-11-24T19:24:14.331Z,8.50
2022-11-24T19:26:43.750Z,8.40
2022-11-24T19:29:10.818Z,8.40
2022-11-24T19:31:41.214Z,8.40
2022-11-24T19:34:11.491Z,8.40
2022-11-24T19:36:40.500Z,8.40
2022-11-24T19:39:12.219Z,8.40
2022-11-24T19:41:39.106Z,8.40
2022-11-24T19:44:06.055Z,8.30
2022-11-24T19:46:33.514Z,8.30
2022-11-24T19:49:01.955Z,8.30
2022-11-24T19:51:38.528Z,8.30
2022-11-24T19:54:13.248Z,8.20
2022-11-24T19:56:41.403Z,8.20
2022-11-24T19:59:13.190Z,8.10
2022-11-24T20:01:43.252Z,8.10
2022-11-24T20:04:13.692Z,8.10
2022-11-24T20:06:45.581Z,8.10
2022-11-24T20:09:15.936Z,8.10
2022-11-24T20:11:43.015Z,8.00
2022-11-24T20:14:19.032Z,8.00
2022-11-24T20:16:50.953Z,8.00
2022-11-24T20:19:18.720Z,8.00
2022-11-24T20:21:47.900Z,8.00
2022-11-24T20:24:17.468Z,7.90
2022-11-24T20:26:49.197Z,7.90
2022-11-24T20:29:19.263Z,7.90
2022-11-24T20:31:50.062Z,7.90
2022-11-24T20:34:20.798Z,7.80
2022-11-24T20:36:48.620Z,7.80
2022-11-24T20:39:23.902Z,7.80
2022-11-24T20:41:54.779Z,7.80
2022-11-24T20:44:22.713Z,7.80
2022-11-24T20:46:50.129Z,7.70
2022-11-24T20:49:20.129Z,7.70
2022-11-24T20:51:47.810Z,7.70
2022-11-24T20:54:17.829Z,7.70
2022-11-24T20:56:46.530Z,7.70
2022-11-24T20:59:21.584Z,7.70
2022-11-24T21:01:52.535Z,7.70
2022-11-24T21:04:29.019Z,7.70
2022-11-24T21:06:56.494Z,7.70
2022-11-24T21:09:24.743Z,7.70
2022-11-24T21:11:51.631Z,7.70
2022-11-24T21:14:21.063Z,7.70
2022-11-24T21:16:55.011Z,7.70
2022-11-24T21:19:26.851Z,7.70
2022-11-24T21:21:54.098Z,7.70
2022-11-24T21:24:23.486Z,7.80
2022-11-24T21:26:53.227Z,7.70
2022-11-24T21:29:23.354Z,7.80
2022-11-24T21:31:50.688Z,7.80
2022-11-24T21:34:20.839Z,7.80
2022-11-24T21:36:50.375Z,7.80
2022-11-24T21:39:17.647Z,7.80
2022-11-24T21:41:44.696Z,7.80
2022-11-24T21:44:13.469Z,7.80
2022-11-24T21:46:46.119Z,7.80
2022-11-24T21:49:18.856Z,7.80
2022-11-24T21:51:48.097Z,7.80
2022-11-24T21:54:14.971Z,7.80
2022-11-24T21:56:41.892Z,7.90
2022-11-24T21:59:15.868Z,7.80
2022-11-24T22:01:42.884Z,7.80
2022-11-24T22:04:12.345Z,7.90
2022-11-24T22:06:41.680Z,7.90
2022-11-24T22:09:16.404Z,7.90
2022-11-24T22:11:52.648Z,7.90
2022-11-24T22:14:19.573Z,7.90
2022-11-24T22:16:51.197Z,7.90
2022-11-24T22:19:22.746Z,7.80
2022-11-24T22:21:50.748Z,7.70
2022-11-24T22:24:19.035Z,7.80
2022-11-24T22:26:49.439Z,7.80
2022-11-24T22:29:16.343Z,7.80
2022-11-24T22:31:46.317Z,7.80
2022-11-24T22:34:13.202Z,7.80
2022-11-24T22:36:40.066Z,7.80
2022-11-24T22:39:11.851Z,7.80
2022-11-24T22:41:38.759Z,7.80
2022-11-24T22:44:06.028Z,7.80
2022-11-24T22:46:33.172Z,7.80
2022-11-24T22:49:01.744Z,7.80
2022-11-24T22:51:34.271Z,7.80
2022-11-24T22:54:03.840Z,7.80
2022-11-24T22:56:32.499Z,7.80
2022-11-24T22:59:01.171Z,7.80
2022-11-24T23:01:33.533Z,7.80
2022-11-24T23:04:00.821Z,7.80
2022-11-24T23:06:30.420Z,7.90
2022-11-24T23:09:02.147Z,7.90
2022-11-24T23:11:37.487Z,7.80
2022-11-24T23:14:16.807Z,7.90
2022-11-24T23:16:46.391Z,7.80
2022-11-24T23:19:13.290Z,7.80
2022-11-24T23:21:42.648Z,7.90
2022-11-24T23:24:10.941Z,7.90
2022-11-24T23:26:40.497Z,7.80
2022-11-24T23:29:10.384Z,7.90
2022-11-24T23:31:40.412Z,7.90
2022-11-24T23:34:12.327Z,7.90
2022-11-24T23:36:41.903Z,7.90
2022-11-24T23:39:13.356Z,7.80
2022-11-24T23:41:40.584Z,7.90
2022-11-24T23:44:08.029Z,7.90
2022-11-24T23:46:34.917Z,7.90
2022-11-24T23:49:01.859Z,7.90
2022-11-24T23:51:35.962Z,7.80
2022-11-24T23:54:10.394Z,7.80
2022-11-24T23:56:37.530Z,7.90
2022-11-24T23:59:05.130Z,7.90
